sensor_id;sensor_type;location;lat;lon;timestamp;pressure;altitude;pressure_sealevel;temperature;humidity
68871;BME280;55906;52.278;6.808;2024-02-04T00:02:15;102050.97;;;11.36;100.00
68871;BME280;55906;52.278;6.808;2024-02-04T00:04:42;102060.63;;;11.35;100.00
68871;BME280;55906;52.278;6.808;2024-02-04T00:07:09;102057.84;;;11.32;100.00
68871;BME280;55906;52.278;6.808;2024-02-04T00:09:35;102050.06;;;11.35;100.00
68871;BME280;55906;52.278;6.808;2024-02-04T00:12:03;102056.13;;;11.33;100.00
68871;BME280;55906;52.278;6.808;2024-02-04T00:14:31;102060.47;;;11.32;100.00
68871;BME280;55906;52.278;6.808;2024-02-04T00:16:58;102057.72;;;11.29;100.00
68871;BME280;55906;52.278;6.808;2024-02-04T00:19:27;102063.06;;;11.31;100.00
68871;BME280;55906;52.278;6.808;2024-02-04T00:21:55;102063.31;;;11.37;100.00
68871;BME280;55906;52.278;6.808;2024-02-04T00:24:22;102066.84;;;11.37;100.00
68871;BME280;55906;52.278;6.808;2024-02-04T00:26:49;102074.03;;;11.41;100.00
68871;BME280;55906;52.278;6.808;2024-02-04T00:29:17;102080.59;;;11.30;100.00
68871;BME280;55906;52.278;6.808;2024-02-04T00:31:44;102077.84;;;11.27;100.00
68871;BME280;55906;52.278;6.808;2024-02-04T00:34:11;102081.56;;;11.32;100.00
68871;BME280;55906;52.278;6.808;2024-02-04T00:36:39;102066.41;;;11.27;100.00
68871;BME280;55906;52.278;6.808;2024-02-04T00:39:06;102065.63;;;11.29;100.00
68871;BME280;55906;52.278;6.808;2024-02-04T00:41:34;102066.41;;;11.27;100.00
68871;BME280;55906;52.278;6.808;2024-02-04T00:44:01;102068.19;;;11.28;100.00
68871;BME280;55906;52.278;6.808;2024-02-04T00:46:28;102074.25;;;11.25;100.00
68871;BME280;55906;52.278;6.808;2024-02-04T00:48:55;102068.78;;;11.20;100.00
68871;BME280;55906;52.278;6.808;2024-02-04T00:51:22;102070.69;;;11.25;100.00
68871;BME280;55906;52.278;6.808;2024-02-04T00:53:50;102070.00;;;11.29;100.00
68871;BME280;55906;52.278;6.808;2024-02-04T00:56:18;102082.13;;;11.25;100.00
68871;BME280;55906;52.278;6.808;2024-02-04T00:58:45;102083.22;;;11.30;100.00
68871;BME280;55906;52.278;6.808;2024-02-04T01:01:12;102080.59;;;11.30;100.00
68871;BME280;55906;52.278;6.808;2024-02-04T01:03:39;102091.13;;;11.30;100.00
68871;BME280;55906;52.278;6.808;2024-02-04T01:06:06;102091.25;;;11.33;100.00
68871;BME280;55906;52.278;6.808;2024-02-04T01:08:33;102093.06;;;11.34;100.00
68871;BME280;55906;52.278;6.808;2024-02-04T01:11:04;102082.13;;;11.25;100.00
68871;BME280;55906;52.278;6.808;2024-02-04T01:13:31;102083.94;;;11.26;100.00
68871;BME280;55906;52.278;6.808;2024-02-04T01:15:58;102081.25;;;11.25;100.00
68871;BME280;55906;52.278;6.808;2024-02-04T01:18:25;102077.97;;;11.30;100.00
68871;BME280;55906;52.278;6.808;2024-02-04T01:20:52;102082.25;;;11.28;100.00
68871;BME280;55906;52.278;6.808;2024-02-04T01:23:18;102085.94;;;11.32;100.00
68871;BME280;55906;52.278;6.808;2024-02-04T01:25:45;102082.34;;;11.30;100.00
68871;BME280;55906;52.278;6.808;2024-02-04T01:28:14;102081.44;;;11.29;100.00
68871;BME280;55906;52.278;6.808;2024-02-04T01:30:41;102080.53;;;11.29;100.00
68871;BME280;55906;52.278;6.808;2024-02-04T01:33:07;102096.16;;;11.24;100.00
68871;BME280;55906;52.278;6.808;2024-02-04T01:35:35;102087.53;;;11.28;100.00
68871;BME280;55906;52.278;6.808;2024-02-04T01:38:03;102086.13;;;11.36;100.00
68871;BME280;55906;52.278;6.808;2024-02-04T01:40:30;102089.72;;;11.38;100.00
68871;BME280;55906;52.278;6.808;2024-02-04T01:42:56;102086.97;;;11.35;100.00
68871;BME280;55906;52.278;6.808;2024-02-04T01:45:25;102085.22;;;11.36;100.00
68871;BME280;55906;52.278;6.808;2024-02-04T01:47:51;102074.50;;;11.31;100.00
68871;BME280;55906;52.278;6.808;2024-02-04T01:50:19;102069.34;;;11.34;100.00
68871;BME280;55906;52.278;6.808;2024-02-04T01:52:46;102062.22;;;11.32;100.00
68871;BME280;55906;52.278;6.808;2024-02-04T01:55:14;102064.78;;;11.30;100.00
68871;BME280;55906;52.278;6.808;2024-02-04T01:57:40;102055.09;;;11.29;100.00
68871;BME280;55906;52.278;6.808;2024-02-04T02:00:08;102056.88;;;11.30;100.00
68871;BME280;55906;52.278;6.808;2024-02-04T02:02:39;102061.06;;;11.25;100.00
68871;BME280;55906;52.278;6.808;2024-02-04T02:05:06;102052.84;;;11.17;100.00
68871;BME280;55906;52.278;6.808;2024-02-04T02:07:34;102052.78;;;11.16;100.00
68871;BME280;55906;52.278;6.808;2024-02-04T02:10:02;102052.06;;;11.20;100.00
68871;BME280;55906;52.278;6.808;2024-02-04T02:12:35;102044.28;;;11.23;100.00
68871;BME280;55906;52.278;6.808;2024-02-04T02:15:10;102046.75;;;11.18;100.00
68871;BME280;55906;52.278;6.808;2024-02-04T02:17:48;102052.06;;;11.20;100.00
68871;BME280;55906;52.278;6.808;2024-02-04T02:20:21;102046.28;;;11.08;100.00
68871;BME280;55906;52.278;6.808;2024-02-04T02:22:56;102047.38;;;11.13;100.00
68871;BME280;55906;52.278;6.808;2024-02-04T02:25:27;102048.00;;;11.07;100.00
68871;BME280;55906;52.278;6.808;2024-02-04T02:27:54;102052.94;;;11.00;100.00
68871;BME280;55906;52.278;6.808;2024-02-04T02:30:21;102055.16;;;11.10;100.00
68871;BME280;55906;52.278;6.808;2024-02-04T02:32:48;102053.53;;;11.13;100.00
68871;BME280;55906;52.278;6.808;2024-02-04T02:35:16;102051.56;;;11.08;100.00
68871;BME280;55906;52.278;6.808;2024-02-04T02:37:46;102046.91;;;11.02;100.00
68871;BME280;55906;52.278;6.808;2024-02-04T02:40:22;102044.16;;;10.99;100.00
68871;BME280;55906;52.278;6.808;2024-02-04T02:42:52;102057.53;;;11.04;100.00
68871;BME280;55906;52.278;6.808;2024-02-04T02:45:19;102052.00;;;10.98;100.00
68871;BME280;55906;52.278;6.808;2024-02-04T02:47:48;102051.72;;;10.92;100.00
68871;BME280;55906;52.278;6.808;2024-02-04T02:50:16;102055.31;;;10.94;100.00
68871;BME280;55906;52.278;6.808;2024-02-04T02:52:43;102052.75;;;10.95;100.00
68871;BME280;55906;52.278;6.808;2024-02-04T02:55:09;102052.00;;;10.98;100.00
68871;BME280;55906;52.278;6.808;2024-02-04T02:57:36;102037.31;;;10.83;100.00
68871;BME280;55906;52.278;6.808;2024-02-04T03:00:06;102044.97;;;10.77;99.52
68871;BME280;55906;52.278;6.808;2024-02-04T03:02:34;102063.25;;;10.74;98.99
68871;BME280;55906;52.278;6.808;2024-02-04T03:05:01;102043.72;;;10.69;98.61
68871;BME280;55906;52.278;6.808;2024-02-04T03:07:28;102035.91;;;10.71;98.61
68871;BME280;55906;52.278;6.808;2024-02-04T03:09:55;102038.47;;;10.69;98.60
68871;BME280;55906;52.278;6.808;2024-02-04T03:12:21;102037.50;;;10.67;98.71
68871;BME280;55906;52.278;6.808;2024-02-04T03:14:48;102037.22;;;10.61;97.65
68871;BME280;55906;52.278;6.808;2024-02-04T03:17:16;102027.66;;;10.63;97.96
68871;BME280;55906;52.278;6.808;2024-02-04T03:19:46;102025.78;;;10.61;97.77
68871;BME280;55906;52.278;6.808;2024-02-04T03:22:14;102033.34;;;10.53;97.83
68871;BME280;55906;52.278;6.808;2024-02-04T03:24:40;102022.00;;;10.54;98.09
68871;BME280;55906;52.278;6.808;2024-02-04T03:27:07;102023.66;;;10.52;97.53
68871;BME280;55906;52.278;6.808;2024-02-04T03:29:34;102028.16;;;10.54;97.59
68871;BME280;55906;52.278;6.808;2024-02-04T03:32:01;102035.84;;;10.50;98.00
68871;BME280;55906;52.278;6.808;2024-02-04T03:34:29;102044.00;;;10.56;97.65
68871;BME280;55906;52.278;6.808;2024-02-04T03:36:56;102059.66;;;10.53;97.76
68871;BME280;55906;52.278;6.808;2024-02-04T03:39:23;102063.94;;;10.51;97.93
68871;BME280;55906;52.278;6.808;2024-02-04T03:41:50;102066.25;;;10.43;98.11
68871;BME280;55906;52.278;6.808;2024-02-04T03:44:16;102046.09;;;10.44;97.62
68871;BME280;55906;52.278;6.808;2024-02-04T03:46:43;102051.22;;;10.41;98.28
68871;BME280;55906;52.278;6.808;2024-02-04T03:49:10;102053.97;;;10.44;98.39
68871;BME280;55906;52.278;6.808;2024-02-04T03:51:39;102043.31;;;10.41;98.19
68871;BME280;55906;52.278;6.808;2024-02-04T03:54:05;102055.72;;;10.43;98.80
68871;BME280;55906;52.278;6.808;2024-02-04T03:56:34;102053.84;;;10.41;98.33
68871;BME280;55906;52.278;6.808;2024-02-04T03:59:00;102038.84;;;10.40;98.43
68871;BME280;55906;52.278;6.808;2024-02-04T04:01:27;102034.53;;;10.40;98.69
68871;BME280;55906;52.278;6.808;2024-02-04T04:03:54;102049.31;;;10.38;98.03
68871;BME280;55906;52.278;6.808;2024-02-04T04:06:21;102038.06;;;10.41;98.59
68871;BME280;55906;52.278;6.808;2024-02-04T04:08:49;102044.88;;;10.37;98.09
68871;BME280;55906;52.278;6.808;2024-02-04T04:11:16;102056.78;;;10.29;97.23
68871;BME280;55906;52.278;6.808;2024-02-04T04:13:43;102051.81;;;10.35;96.98
68871;BME280;55906;52.278;6.808;2024-02-04T04:16:09;102053.78;;;10.21;94.08
68871;BME280;55906;52.278;6.808;2024-02-04T04:18:36;102071.66;;;10.29;92.34
68871;BME280;55906;52.278;6.808;2024-02-04T04:21:03;102060.84;;;10.22;90.50
68871;BME280;55906;52.278;6.808;2024-02-04T04:23:30;102052.13;;;10.23;90.23
68871;BME280;55906;52.278;6.808;2024-02-04T04:25:58;102050.47;;;10.25;90.47
68871;BME280;55906;52.278;6.808;2024-02-04T04:28:25;102062.19;;;10.14;90.37
68871;BME280;55906;52.278;6.808;2024-02-04T04:30:52;102059.50;;;10.13;90.12
68871;BME280;55906;52.278;6.808;2024-02-04T04:33:19;102051.81;;;10.17;89.62
68871;BME280;55906;52.278;6.808;2024-02-04T04:35:46;102039.34;;;10.13;90.02
68871;BME280;55906;52.278;6.808;2024-02-04T04:38:13;102040.25;;;10.14;90.57
68871;BME280;55906;52.278;6.808;2024-02-04T04:40:40;102044.84;;;10.18;89.84
68871;BME280;55906;52.278;6.808;2024-02-04T04:43:08;102033.28;;;10.14;90.58
68871;BME280;55906;52.278;6.808;2024-02-04T04:45:35;102045.44;;;10.12;90.40
68871;BME280;55906;52.278;6.808;2024-02-04T04:48:02;102050.50;;;10.08;90.72
68871;BME280;55906;52.278;6.808;2024-02-04T04:50:29;102044.19;;;10.04;90.87
68871;BME280;55906;52.278;6.808;2024-02-04T04:52:56;102041.03;;;10.11;90.91
68871;BME280;55906;52.278;6.808;2024-02-04T04:55:22;102035.63;;;10.08;90.45
68871;BME280;55906;52.278;6.808;2024-02-04T04:57:49;102022.47;;;10.08;90.77
68871;BME280;55906;52.278;6.808;2024-02-04T05:00:19;102033.06;;;10.10;90.95
68871;BME280;55906;52.278;6.808;2024-02-04T05:02:46;102028.28;;;10.01;90.71
68871;BME280;55906;52.278;6.808;2024-02-04T05:05:13;102023.09;;;10.03;90.91
68871;BME280;55906;52.278;6.808;2024-02-04T05:07:40;102017.75;;;10.01;90.36
68871;BME280;55906;52.278;6.808;2024-02-04T05:10:07;102004.81;;;10.06;90.56
68871;BME280;55906;52.278;6.808;2024-02-04T05:12:35;101995.00;;;10.02;90.43
68871;BME280;55906;52.278;6.808;2024-02-04T05:15:03;102005.72;;;10.06;90.51
68871;BME280;55906;52.278;6.808;2024-02-04T05:17:31;102015.06;;;10.00;90.82
68871;BME280;55906;52.278;6.808;2024-02-04T05:19:58;101990.50;;;9.99;90.57
68871;BME280;55906;52.278;6.808;2024-02-04T05:22:25;101995.06;;;10.03;90.78
68871;BME280;55906;52.278;6.808;2024-02-04T05:24:52;101999.56;;;10.06;90.52
68871;BME280;55906;52.278;6.808;2024-02-04T05:27:19;101999.56;;;10.06;89.68
68871;BME280;55906;52.278;6.808;2024-02-04T05:29:47;101995.50;;;10.12;89.87
68871;BME280;55906;52.278;6.808;2024-02-04T05:32:13;101994.38;;;10.07;89.70
68871;BME280;55906;52.278;6.808;2024-02-04T05:34:42;102004.81;;;10.06;89.62
68871;BME280;55906;52.278;6.808;2024-02-04T05:37:08;102004.28;;;10.13;89.88
68871;BME280;55906;52.278;6.808;2024-02-04T05:39:35;102000.00;;;10.15;89.62
68871;BME280;55906;52.278;6.808;2024-02-04T05:42:02;102003.44;;;10.14;89.78
68871;BME280;55906;52.278;6.808;2024-02-04T05:44:29;101996.41;;;10.13;89.06
68871;BME280;55906;52.278;6.808;2024-02-04T05:46:56;102004.50;;;10.17;89.65
68871;BME280;55906;52.278;6.808;2024-02-04T05:49:23;102010.13;;;10.25;89.06
68871;BME280;55906;52.278;6.808;2024-02-04T05:51:51;102015.06;;;10.19;88.96
68871;BME280;55906;52.278;6.808;2024-02-04T05:54:17;102013.91;;;10.12;89.01
68871;BME280;55906;52.278;6.808;2024-02-04T05:56:44;102000.13;;;10.18;88.79
68871;BME280;55906;52.278;6.808;2024-02-04T05:59:11;102004.50;;;10.17;87.60
68871;BME280;55906;52.278;6.808;2024-02-04T06:01:38;102003.59;;;10.17;87.10
68871;BME280;55906;52.278;6.808;2024-02-04T06:04:04;102006.16;;;10.15;86.48
68871;BME280;55906;52.278;6.808;2024-02-04T06:06:31;101993.97;;;10.17;86.79
68871;BME280;55906;52.278;6.808;2024-02-04T06:09:00;101983.31;;;10.14;85.65
68871;BME280;55906;52.278;6.808;2024-02-04T06:11:27;101988.72;;;10.17;85.63
68871;BME280;55906;52.278;6.808;2024-02-04T06:13:54;101996.59;;;10.17;85.56
68871;BME280;55906;52.278;6.808;2024-02-04T06:16:21;101983.47;;;10.17;84.96
68871;BME280;55906;52.278;6.808;2024-02-04T06:18:48;102003.59;;;10.17;84.50
68871;BME280;55906;52.278;6.808;2024-02-04T06:21:15;102011.13;;;10.09;84.11
68871;BME280;55906;52.278;6.808;2024-02-04T06:23:41;102015.56;;;10.10;84.26
68871;BME280;55906;52.278;6.808;2024-02-04T06:26:10;102005.88;;;10.09;83.75
68871;BME280;55906;52.278;6.808;2024-02-04T06:28:36;102002.97;;;10.03;82.55
68871;BME280;55906;52.278;6.808;2024-02-04T06:31:03;102002.13;;;10.04;82.45
68871;BME280;55906;52.278;6.808;2024-02-04T06:33:30;102007.38;;;10.04;82.31
68871;BME280;55906;52.278;6.808;2024-02-04T06:35:57;101997.63;;;10.02;82.65
68871;BME280;55906;52.278;6.808;2024-02-04T06:38:23;102004.06;;;10.08;82.07
68871;BME280;55906;52.278;6.808;2024-02-04T06:40:50;102003.78;;;10.02;81.29
68871;BME280;55906;52.278;6.808;2024-02-04T06:43:18;102003.03;;;10.05;81.44
68871;BME280;55906;52.278;6.808;2024-02-04T06:45:45;102006.63;;;10.07;81.11
68871;BME280;55906;52.278;6.808;2024-02-04T06:48:12;102010.91;;;10.05;80.89
68871;BME280;55906;52.278;6.808;2024-02-04T06:50:39;101996.81;;;10.03;80.88
68871;BME280;55906;52.278;6.808;2024-02-04T06:53:09;102000.47;;;10.06;81.07
68871;BME280;55906;52.278;6.808;2024-02-04T06:55:35;101997.50;;;9.99;80.56
68871;BME280;55906;52.278;6.808;2024-02-04T06:58:02;101997.13;;;9.91;80.08
68871;BME280;55906;52.278;6.808;2024-02-04T07:00:30;101995.41;;;9.91;80.43
68871;BME280;55906;52.278;6.808;2024-02-04T07:02:57;102003.06;;;9.87;80.44
68871;BME280;55906;52.278;6.808;2024-02-04T07:05:24;101989.72;;;9.82;79.53
68871;BME280;55906;52.278;6.808;2024-02-04T07:07:51;101981.16;;;9.86;80.16
68871;BME280;55906;52.278;6.808;2024-02-04T07:10:18;101978.44;;;9.85;79.84
68871;BME280;55906;52.278;6.808;2024-02-04T07:12:45;101984.53;;;9.84;80.55
68871;BME280;55906;52.278;6.808;2024-02-04T07:15:11;101989.72;;;9.82;80.15
68871;BME280;55906;52.278;6.808;2024-02-04T07:17:41;101986.47;;;9.88;79.70
68871;BME280;55906;52.278;6.808;2024-02-04T07:20:08;101997.19;;;9.92;80.24
68871;BME280;55906;52.278;6.808;2024-02-04T07:22:35;101996.78;;;9.83;80.19
68871;BME280;55906;52.278;6.808;2024-02-04T07:25:02;101975.75;;;9.83;80.33
68871;BME280;55906;52.278;6.808;2024-02-04T07:27:30;101987.44;;;9.90;80.16
68871;BME280;55906;52.278;6.808;2024-02-04T07:29:57;101978.59;;;9.88;80.23
68871;BME280;55906;52.278;6.808;2024-02-04T07:32:23;101972.50;;;9.89;80.10
68871;BME280;55906;52.278;6.808;2024-02-04T07:34:52;101992.78;;;9.91;80.38
68871;BME280;55906;52.278;6.808;2024-02-04T07:37:18;101978.72;;;9.91;80.41
68871;BME280;55906;52.278;6.808;2024-02-04T07:39:45;101981.28;;;9.89;80.75
68871;BME280;55906;52.278;6.808;2024-02-04T07:42:12;101972.56;;;9.90;80.97
68871;BME280;55906;52.278;6.808;2024-02-04T07:44:39;101966.56;;;9.93;81.08
68871;BME280;55906;52.278;6.808;2024-02-04T07:47:06;101968.06;;;9.88;81.42
68871;BME280;55906;52.278;6.808;2024-02-04T07:49:32;101968.06;;;9.88;81.93
68871;BME280;55906;52.278;6.808;2024-02-04T07:52:01;101977.06;;;9.93;82.02
68871;BME280;55906;52.278;6.808;2024-02-04T07:54:26;101974.59;;;9.96;82.27
68871;BME280;55906;52.278;6.808;2024-02-04T07:56:53;101972.94;;;9.98;82.56
68871;BME280;55906;52.278;6.808;2024-02-04T07:59:20;101973.06;;;10.01;83.10
68871;BME280;55906;52.278;6.808;2024-02-04T08:01:47;101971.28;;;10.00;83.37
68871;BME280;55906;52.278;6.808;2024-02-04T08:04:14;101960.91;;;10.03;83.76
68871;BME280;55906;52.278;6.808;2024-02-04T08:06:41;101959.31;;;10.07;83.57
68871;BME280;55906;52.278;6.808;2024-02-04T08:09:10;101942.78;;;10.09;83.90
68871;BME280;55906;52.278;6.808;2024-02-04T08:11:37;101943.59;;;10.08;84.32
68871;BME280;55906;52.278;6.808;2024-02-04T08:14:04;101943.66;;;10.10;84.90
68871;BME280;55906;52.278;6.808;2024-02-04T08:16:30;101942.44;;;10.21;84.51
68871;BME280;55906;52.278;6.808;2024-02-04T08:18:57;101942.44;;;10.21;84.40
68871;BME280;55906;52.278;6.808;2024-02-04T08:21:24;101939.00;;;10.22;84.59
68871;BME280;55906;52.278;6.808;2024-02-04T08:23:51;101948.88;;;10.27;85.14
68871;BME280;55906;52.278;6.808;2024-02-04T08:26:19;101959.53;;;10.31;84.74
68871;BME280;55906;52.278;6.808;2024-02-04T08:28:46;101961.28;;;10.30;85.07
68871;BME280;55906;52.278;6.808;2024-02-04T08:31:13;101954.28;;;10.31;85.38
68871;BME280;55906;52.278;6.808;2024-02-04T08:33:39;101953.66;;;10.36;85.12
68871;BME280;55906;52.278;6.808;2024-02-04T08:36:06;101957.41;;;10.41;85.24
68871;BME280;55906;52.278;6.808;2024-02-04T08:38:35;101948.69;;;10.42;85.80
68871;BME280;55906;52.278;6.808;2024-02-04T08:41:02;101955.88;;;10.46;85.53
68871;BME280;55906;52.278;6.808;2024-02-04T08:43:30;101950.69;;;10.48;85.58
68871;BME280;55906;52.278;6.808;2024-02-04T08:45:57;101943.75;;;10.50;85.43
68871;BME280;55906;52.278;6.808;2024-02-04T08:48:24;101937.34;;;10.43;85.45
68871;BME280;55906;52.278;6.808;2024-02-04T08:50:51;101927.84;;;10.47;85.67
68871;BME280;55906;52.278;6.808;2024-02-04T08:53:19;101936.91;;;10.53;85.26
68871;BME280;55906;52.278;6.808;2024-02-04T08:55:46;101941.13;;;10.50;85.17
68871;BME280;55906;52.278;6.808;2024-02-04T08:58:13;101934.97;;;10.49;85.11
68871;BME280;55906;52.278;6.808;2024-02-04T09:00:41;101921.56;;;10.64;84.09
68871;BME280;55906;52.278;6.808;2024-02-04T09:03:08;101929.00;;;10.53;84.69
68871;BME280;55906;52.278;6.808;2024-02-04T09:05:34;101930.94;;;10.57;84.24
68871;BME280;55906;52.278;6.808;2024-02-04T09:08:01;101932.66;;;10.57;83.93
68871;BME280;55906;52.278;6.808;2024-02-04T09:10:28;101925.88;;;10.62;83.88
68871;BME280;55906;52.278;6.808;2024-02-04T09:12:55;101939.09;;;10.64;83.81
68871;BME280;55906;52.278;6.808;2024-02-04T09:15:22;101938.19;;;10.63;83.26
68871;BME280;55906;52.278;6.808;2024-02-04T09:17:50;101950.66;;;10.67;83.10
68871;BME280;55906;52.278;6.808;2024-02-04T09:20:16;101931.59;;;10.73;83.26
68871;BME280;55906;52.278;6.808;2024-02-04T09:22:43;101954.25;;;10.69;83.04
68871;BME280;55906;52.278;6.808;2024-02-04T09:25:10;101953.47;;;10.72;83.35
68871;BME280;55906;52.278;6.808;2024-02-04T09:27:37;101945.91;;;10.79;83.11
68871;BME280;55906;52.278;6.808;2024-02-04T09:30:05;101946.94;;;10.83;83.14
68871;BME280;55906;52.278;6.808;2024-02-04T09:32:31;101936.28;;;10.80;82.69
68871;BME280;55906;52.278;6.808;2024-02-04T09:35:00;101942.19;;;10.74;83.19
68871;BME280;55906;52.278;6.808;2024-02-04T09:37:27;101950.19;;;10.77;83.36
68871;BME280;55906;52.278;6.808;2024-02-04T09:39:54;101953.94;;;10.82;83.70
68871;BME280;55906;52.278;6.808;2024-02-04T09:42:21;101963.56;;;10.82;83.57
68871;BME280;55906;52.278;6.808;2024-02-04T09:44:49;101949.56;;;10.83;83.83
68871;BME280;55906;52.278;6.808;2024-02-04T09:47:16;101959.44;;;10.88;84.45
68871;BME280;55906;52.278;6.808;2024-02-04T09:49:44;101948.03;;;10.88;84.45
68871;BME280;55906;52.278;6.808;2024-02-04T09:52:13;101951.03;;;10.97;84.45
68871;BME280;55906;52.278;6.808;2024-02-04T09:54:44;101953.72;;;10.99;85.07
68871;BME280;55906;52.278;6.808;2024-02-04T09:57:12;101957.72;;;11.10;84.72
68871;BME280;55906;52.278;6.808;2024-02-04T09:59:39;101938.56;;;11.14;84.62
68871;BME280;55906;52.278;6.808;2024-02-04T10:02:06;101947.16;;;11.31;84.61
68871;BME280;55906;52.278;6.808;2024-02-04T10:04:33;101943.03;;;11.37;84.59
68871;BME280;55906;52.278;6.808;2024-02-04T10:07:01;101935.19;;;11.39;84.74
68871;BME280;55906;52.278;6.808;2024-02-04T10:09:29;101927.44;;;11.43;85.51
68871;BME280;55906;52.278;6.808;2024-02-04T10:11:57;101924.94;;;11.46;85.19
68871;BME280;55906;52.278;6.808;2024-02-04T10:14:24;101922.06;;;11.40;85.73
68871;BME280;55906;52.278;6.808;2024-02-04T10:16:50;101929.31;;;11.46;86.06
68871;BME280;55906;52.278;6.808;2024-02-04T10:19:17;101931.81;;;11.43;85.87
68871;BME280;55906;52.278;6.808;2024-02-04T10:21:44;101930.75;;;11.38;86.57
68871;BME280;55906;52.278;6.808;2024-02-04T10:24:11;101931.22;;;11.28;87.31
68871;BME280;55906;52.278;6.808;2024-02-04T10:26:39;101926.13;;;11.32;87.18
68871;BME280;55906;52.278;6.808;2024-02-04T10:29:08;101915.78;;;11.37;87.55
68871;BME280;55906;52.278;6.808;2024-02-04T10:31:35;101921.94;;;11.37;87.64
68871;BME280;55906;52.278;6.808;2024-02-04T10:34:02;101926.44;;;11.40;87.88
68871;BME280;55906;52.278;6.808;2024-02-04T10:36:30;101937.41;;;11.50;87.24
68871;BME280;55906;52.278;6.808;2024-02-04T10:38:57;101919.78;;;11.49;87.17
68871;BME280;55906;52.278;6.808;2024-02-04T10:41:25;101905.88;;;11.53;87.38
68871;BME280;55906;52.278;6.808;2024-02-04T10:43:54;101907.09;;;11.62;87.30
68871;BME280;55906;52.278;6.808;2024-02-04T10:46:23;101922.91;;;11.62;87.49
68871;BME280;55906;52.278;6.808;2024-02-04T10:48:57;101924.03;;;11.68;87.72
68871;BME280;55906;52.278;6.808;2024-02-04T10:51:25;101923.06;;;11.66;87.52
68871;BME280;55906;52.278;6.808;2024-02-04T10:53:54;101917.50;;;11.59;88.24
68871;BME280;55906;52.278;6.808;2024-02-04T10:56:24;101914.16;;;11.63;87.96
68871;BME280;55906;52.278;6.808;2024-02-04T10:58:54;101910.72;;;11.65;87.83
68871;BME280;55906;52.278;6.808;2024-02-04T11:01:21;101899.56;;;11.71;88.01
68871;BME280;55906;52.278;6.808;2024-02-04T11:03:50;101895.75;;;11.64;88.22
68871;BME280;55906;52.278;6.808;2024-02-04T11:06:18;101900.25;;;11.67;88.48
68871;BME280;55906;52.278;6.808;2024-02-04T11:08:47;101903.59;;;11.63;88.51
68871;BME280;55906;52.278;6.808;2024-02-04T11:11:13;101897.38;;;11.61;88.63
68871;BME280;55906;52.278;6.808;2024-02-04T11:13:43;101886.91;;;11.62;88.70
68871;BME280;55906;52.278;6.808;2024-02-04T11:16:19;101884.31;;;11.64;88.73
68871;BME280;55906;52.278;6.808;2024-02-04T11:19:17;101886.09;;;11.65;88.23
68871;BME280;55906;52.278;6.808;2024-02-04T11:22:15;101896.03;;;11.70;87.91
68871;BME280;55906;52.278;6.808;2024-02-04T11:24:55;101889.00;;;11.71;87.63
68871;BME280;55906;52.278;6.808;2024-02-04T11:27:26;101884.53;;;11.70;87.49
68871;BME280;55906;52.278;6.808;2024-02-04T11:29:53;101882.06;;;11.73;87.54
68871;BME280;55906;52.278;6.808;2024-02-04T11:32:23;101874.25;;;11.76;86.77
68871;BME280;55906;52.278;6.808;2024-02-04T11:34:50;101862.75;;;11.74;86.93
68871;BME280;55906;52.278;6.808;2024-02-04T11:37:18;101856.81;;;11.78;86.40
68871;BME280;55906;52.278;6.808;2024-02-04T11:39:49;101858.03;;;11.88;86.51
68871;BME280;55906;52.278;6.808;2024-02-04T11:42:16;101865.03;;;11.87;85.96
68871;BME280;55906;52.278;6.808;2024-02-04T11:44:43;101858.19;;;11.92;85.63
68871;BME280;55906;52.278;6.808;2024-02-04T11:47:10;101858.03;;;11.88;84.87
68871;BME280;55906;52.278;6.808;2024-02-04T11:49:39;101859.44;;;12.02;84.69
68871;BME280;55906;52.278;6.808;2024-02-04T11:52:06;101874.41;;;12.03;84.46
68871;BME280;55906;52.278;6.808;2024-02-04T11:54:32;101869.06;;;12.01;84.44
68871;BME280;55906;52.278;6.808;2024-02-04T11:56:59;101869.31;;;12.07;84.57
68871;BME280;55906;52.278;6.808;2024-02-04T11:59:26;101866.88;;;12.13;84.17
68871;BME280;55906;52.278;6.808;2024-02-04T12:01:54;101853.53;;;12.09;84.11
68871;BME280;55906;52.278;6.808;2024-02-04T12:04:22;101861.50;;;12.10;83.85
68871;BME280;55906;52.278;6.808;2024-02-04T12:06:50;101853.53;;;12.09;84.15
68871;BME280;55906;52.278;6.808;2024-02-04T12:09:17;101859.69;;;12.09;84.19
68871;BME280;55906;52.278;6.808;2024-02-04T12:11:45;101835.22;;;12.13;84.08
68871;BME280;55906;52.278;6.808;2024-02-04T12:14:13;101839.75;;;12.17;83.43
68871;BME280;55906;52.278;6.808;2024-02-04T12:16:40;101848.78;;;12.24;83.16
68871;BME280;55906;52.278;6.808;2024-02-04T12:19:07;101846.09;;;12.23;82.63
68871;BME280;55906;52.278;6.808;2024-02-04T12:21:34;101822.72;;;12.33;81.61
68871;BME280;55906;52.278;6.808;2024-02-04T12:24:04;101848.25;;;12.34;79.61
68871;BME280;55906;52.278;6.808;2024-02-04T12:26:31;101836.16;;;12.41;79.04
68871;BME280;55906;52.278;6.808;2024-02-04T12:28:58;101839.13;;;12.50;78.49
68871;BME280;55906;52.278;6.808;2024-02-04T12:31:25;101836.31;;;12.45;78.02
68871;BME280;55906;52.278;6.808;2024-02-04T12:33:55;101830.41;;;12.53;77.15
68871;BME280;55906;52.278;6.808;2024-02-04T12:36:24;101848.84;;;12.51;76.49
68871;BME280;55906;52.278;6.808;2024-02-04T12:38:53;101833.19;;;12.57;75.74
68871;BME280;55906;52.278;6.808;2024-02-04T12:41:21;101834.19;;;12.61;75.79
68871;BME280;55906;52.278;6.808;2024-02-04T12:43:52;101841.22;;;12.60;75.71
68871;BME280;55906;52.278;6.808;2024-02-04T12:46:20;101836.69;;;12.56;75.60
68871;BME280;55906;52.278;6.808;2024-02-04T12:48:54;101862.50;;;12.65;75.64
68871;BME280;55906;52.278;6.808;2024-02-04T12:51:23;101851.88;;;12.63;75.91